createdAt,value
2018-11-10T00:00:19.740Z,5.80
2018-11-10T00:02:49.148Z,7.67
2018-11-10T00:05:18.402Z,5.60
2018-11-10T00:07:46.732Z,6.30
2018-11-10T00:10:17.976Z,5.73
2018-11-10T00:12:46.718Z,7.40
2018-11-10T00:15:15.768Z,5.47
2018-11-10T00:17:44.108Z,6.70
2018-11-10T00:20:13.802Z,4.57
2018-11-10T00:22:42.573Z,4.53
2018-11-10T00:25:14.284Z,5.90
2018-11-10T00:27:43.743Z,6.57
2018-11-10T00:30:15.837Z,6.33
2018-11-10T00:32:44.913Z,5.83
2018-11-10T00:35:14.682Z,6.27
2018-11-10T00:37:43.160Z,5.60
2018-11-10T00:40:15.063Z,6.17
2018-11-10T00:42:43.746Z,7.23
2018-11-10T00:45:13.773Z,8.40
2018-11-10T00:47:42.090Z,5.23
2018-11-10T00:50:13.270Z,8.10
2018-11-10T00:52:41.763Z,5.23
2018-11-10T00:55:11.833Z,7.13
2018-11-10T00:57:40.175Z,6.30
2018-11-10T01:00:11.569Z,5.70
2018-11-10T01:02:40.092Z,10.10
2018-11-10T01:05:09.878Z,6.37
2018-11-10T01:07:38.467Z,5.67
2018-11-10T01:10:09.065Z,6.13
2018-11-10T01:12:37.420Z,6.07
2018-11-10T01:15:08.304Z,5.17
2018-11-10T01:17:36.615Z,6.70
2018-11-10T01:20:05.071Z,6.03
2018-11-10T01:22:33.403Z,5.37
2018-11-10T01:25:01.748Z,5.07
2018-11-10T01:27:30.092Z,5.53
2018-11-10T01:29:58.406Z,5.80
2018-11-10T01:32:26.779Z,6.80
2018-11-10T01:34:55.138Z,6.37
2018-11-10T01:37:23.456Z,8.00
2018-11-10T01:39:51.777Z,6.20
2018-11-10T01:42:20.113Z,6.67
2018-11-10T01:44:48.494Z,6.57
2018-11-10T01:47:16.847Z,5.73
2018-11-10T01:49:45.207Z,6.83
2018-11-10T01:52:13.552Z,8.50
2018-11-10T01:54:41.862Z,6.13
2018-11-10T01:57:10.170Z,7.33
2018-11-10T01:59:38.488Z,7.93
2018-11-10T02:02:06.899Z,7.27
2018-11-10T02:04:35.307Z,5.63
2018-11-10T02:07:03.647Z,7.97
2018-11-10T02:09:31.975Z,6.37
2018-11-10T02:12:00.286Z,5.43
2018-11-10T02:14:28.623Z,8.90
2018-11-10T02:16:57.043Z,8.60
2018-11-10T02:19:25.385Z,9.87
2018-11-10T02:21:53.720Z,16.97
2018-11-10T02:24:22.034Z,10.10
2018-11-10T02:26:50.324Z,7.13
2018-11-10T02:29:18.672Z,5.43
2018-11-10T02:31:46.976Z,8.83
2018-11-10T02:34:15.298Z,7.00
2018-11-10T02:36:43.611Z,6.20
2018-11-10T02:39:11.908Z,6.20
2018-11-10T02:41:40.196Z,5.70
2018-11-10T02:44:08.515Z,6.43
2018-11-10T02:46:36.847Z,4.87
2018-11-10T02:49:05.395Z,5.27
2018-11-10T02:51:33.708Z,4.73
2018-11-10T02:54:02.031Z,5.20
2018-11-10T02:56:30.348Z,5.93
2018-11-10T02:58:58.764Z,6.30
2018-11-10T03:01:27.079Z,8.87
2018-11-10T03:03:55.380Z,6.50
2018-11-10T03:06:23.732Z,5.20
2018-11-10T03:08:52.036Z,6.37
2018-11-10T03:11:20.391Z,5.77
2018-11-10T03:13:48.714Z,4.30
2018-11-10T03:16:17.044Z,6.90
2018-11-10T03:18:45.390Z,5.53
2018-11-10T03:21:13.703Z,6.50
2018-11-10T03:23:42.018Z,5.83
2018-11-10T03:26:11.085Z,5.73
2018-11-10T03:28:39.523Z,6.00
2018-11-10T03:31:07.846Z,5.87
2018-11-10T03:33:36.135Z,5.57
2018-11-10T03:36:04.481Z,6.20
2018-11-10T03:38:32.776Z,5.27
2018-11-10T03:41:01.216Z,5.70
2018-11-10T03:43:29.535Z,6.27
2018-11-10T03:45:57.843Z,4.20
2018-11-10T03:48:26.193Z,6.73
2018-11-10T03:50:54.519Z,6.23
2018-11-10T03:53:22.836Z,5.60
2018-11-10T03:55:51.163Z,5.17
2018-11-10T03:58:19.495Z,5.20
2018-11-10T04:00:47.802Z,6.03
2018-11-10T04:03:16.123Z,5.50
2018-11-10T04:05:44.430Z,4.70
2018-11-10T04:08:12.976Z,6.77
2018-11-10T04:10:41.328Z,5.20
2018-11-10T04:13:09.644Z,4.10
2018-11-10T04:15:37.926Z,4.57
2018-11-10T04:18:06.497Z,3.67
2018-11-10T04:20:34.834Z,4.47
2018-11-10T04:23:03.164Z,3.33
2018-11-10T04:25:31.460Z,3.67
2018-11-10T04:27:59.797Z,5.00
2018-11-10T04:30:28.122Z,5.40
2018-11-10T04:32:56.452Z,4.90
2018-11-10T04:35:24.775Z,3.03
2018-11-10T04:37:53.071Z,3.70
2018-11-10T04:40:21.462Z,5.40
2018-11-10T04:42:49.752Z,3.77
2018-11-10T04:45:18.126Z,4.27
2018-11-10T04:47:46.436Z,3.80
2018-11-10T04:50:18.505Z,4.70
2018-11-10T04:52:46.833Z,3.73
2018-11-10T04:55:15.827Z,3.30
2018-11-10T04:57:44.148Z,2.70
2018-11-10T05:00:16.381Z,7.43
2018-11-10T05:02:45.547Z,5.50
2018-11-10T05:05:14.989Z,5.93
2018-11-10T05:07:43.317Z,6.93
2018-11-10T05:10:15.054Z,8.20
2018-11-10T05:12:43.375Z,10.90
2018-11-10T05:15:13.587Z,8.70
2018-11-10T05:17:42.029Z,9.47
2018-11-10T05:20:12.232Z,7.80
2018-11-10T05:22:40.555Z,10.63
2018-11-10T05:25:11.102Z,10.10
2018-11-10T05:27:39.442Z,9.60
2018-11-10T05:30:09.533Z,9.13
2018-11-10T05:32:37.837Z,7.43
2018-11-10T05:35:07.855Z,7.60
2018-11-10T05:37:36.366Z,8.77
2018-11-10T05:40:05.576Z,8.87
2018-11-10T05:42:33.942Z,9.40
2018-11-10T05:45:02.268Z,7.97
2018-11-10T05:47:30.550Z,9.90
2018-11-10T05:49:58.991Z,8.27
2018-11-10T05:52:27.306Z,10.33
2018-11-10T05:54:55.643Z,8.23
2018-11-10T05:57:23.958Z,8.77
2018-11-10T05:59:52.261Z,7.80
2018-11-10T06:02:20.647Z,7.70
2018-11-10T06:04:49.148Z,7.97
2018-11-10T06:07:17.468Z,7.90
2018-11-10T06:09:45.869Z,7.00
2018-11-10T06:12:14.186Z,8.73
2018-11-10T06:14:42.570Z,7.83
2018-11-10T06:17:10.901Z,10.00
2018-11-10T06:19:39.327Z,7.33
2018-11-10T06:22:07.631Z,6.73
2018-11-10T06:24:35.979Z,7.13
2018-11-10T06:27:04.302Z,6.97
2018-11-10T06:29:32.715Z,7.47
2018-11-10T06:32:01.035Z,7.70
2018-11-10T06:34:29.442Z,9.00
2018-11-10T06:36:57.752Z,7.77
2018-11-10T06:39:26.054Z,7.37
2018-11-10T06:41:54.366Z,14.10
2018-11-10T06:44:22.723Z,12.10
2018-11-10T06:46:51.105Z,10.80
2018-11-10T06:49:19.415Z,15.60
2018-11-10T06:51:47.830Z,11.57
2018-11-10T06:54:16.211Z,11.33
2018-11-10T06:56:44.532Z,5.23
2018-11-10T06:59:12.855Z,5.97
2018-11-10T07:01:41.166Z,7.80
2018-11-10T07:04:10.120Z,9.13
2018-11-10T07:06:38.475Z,10.23
2018-11-10T07:09:08.911Z,9.93
2018-11-10T07:11:37.247Z,13.37
2018-11-10T07:14:06.106Z,6.27
2018-11-10T07:16:34.442Z,10.43
2018-11-10T07:19:02.883Z,6.40
2018-11-10T07:21:31.221Z,6.77
2018-11-10T07:23:59.514Z,5.77
2018-11-10T07:26:27.812Z,6.97
2018-11-10T07:28:56.122Z,9.13
2018-11-10T07:31:24.475Z,30.77
2018-11-10T07:33:52.778Z,17.67
2018-11-10T07:36:21.143Z,18.00
2018-11-10T07:38:49.446Z,11.33
2018-11-10T07:41:17.739Z,7.07
2018-11-10T07:43:46.162Z,18.67
2018-11-10T07:46:14.518Z,6.77
2018-11-10T07:48:42.823Z,4.80
2018-11-10T07:51:11.191Z,5.17
2018-11-10T07:53:39.515Z,8.70
2018-11-10T07:56:08.221Z,6.33
2018-11-10T07:58:36.605Z,6.83
2018-11-10T08:01:05.177Z,2.73
2018-11-10T08:03:33.480Z,4.50
2018-11-10T08:06:01.814Z,4.00
2018-11-10T08:08:30.133Z,3.50
2018-11-10T08:10:58.453Z,4.60
2018-11-10T08:13:26.764Z,7.27
2018-11-10T08:15:55.116Z,5.37
2018-11-10T08:18:23.542Z,13.97
2018-11-10T08:20:51.820Z,7.77
2018-11-10T08:23:20.160Z,4.97
2018-11-10T08:25:48.530Z,3.67
2018-11-10T08:28:16.843Z,5.43
2018-11-10T08:30:45.158Z,9.23
2018-11-10T08:33:13.499Z,3.90
2018-11-10T08:35:41.865Z,4.40
2018-11-10T08:38:11.013Z,2.03
2018-11-10T08:40:39.327Z,3.40
2018-11-10T08:43:07.654Z,5.47
2018-11-10T08:45:36.053Z,4.50
2018-11-10T08:48:04.454Z,5.17
2018-11-10T08:50:32.762Z,3.87
2018-11-10T08:53:01.117Z,3.90
2018-11-10T08:55:29.426Z,2.33
2018-11-10T08:57:57.744Z,2.80
2018-11-10T09:00:26.072Z,1.70
2018-11-10T09:02:54.404Z,4.30
2018-11-10T09:05:22.724Z,4.63
2018-11-10T09:07:51.012Z,4.00
2018-11-10T09:10:21.454Z,3.90
2018-11-10T09:12:49.761Z,2.47
2018-11-10T09:15:18.154Z,6.43
2018-11-10T09:17:46.472Z,4.93
2018-11-10T09:20:17.504Z,3.43
2018-11-10T09:22:45.846Z,4.03
2018-11-10T09:25:16.274Z,3.07
2018-11-10T09:27:44.580Z,2.43
2018-11-10T09:30:15.973Z,3.60
2018-11-10T09:32:44.297Z,2.80
2018-11-10T09:35:14.448Z,2.47
2018-11-10T09:37:42.775Z,4.13
2018-11-10T09:40:18.847Z,5.37
2018-11-10T09:42:47.286Z,4.10
2018-11-10T09:45:17.230Z,3.73
2018-11-10T09:47:45.504Z,3.33
2018-11-10T09:50:19.411Z,5.67
2018-11-10T09:52:47.815Z,3.40
2018-11-10T09:55:16.985Z,3.80
2018-11-10T09:57:45.348Z,3.90
2018-11-10T10:00:19.994Z,3.43
2018-11-10T10:02:48.731Z,2.90
2018-11-10T10:05:16.782Z,2.87
2018-11-10T10:07:45.469Z,4.73
2018-11-10T10:10:17.974Z,2.50
2018-11-10T10:12:46.592Z,1.60
2018-11-10T10:15:17.203Z,3.13
2018-11-10T10:17:46.016Z,3.20
2018-11-10T10:20:20.098Z,2.40
2018-11-10T10:22:49.330Z,3.27
2018-11-10T10:25:18.403Z,3.80
2018-11-10T10:27:47.747Z,2.33
2018-11-10T10:30:20.584Z,3.17
2018-11-10T10:32:49.550Z,3.70
2018-11-10T10:35:18.197Z,2.13
2018-11-10T10:37:47.277Z,4.93
2018-11-10T10:40:18.629Z,5.30
2018-11-10T10:42:47.525Z,3.10
2018-11-10T10:45:17.918Z,1.97
2018-11-10T10:47:46.364Z,2.20
2018-11-10T10:50:18.174Z,2.67
2018-11-10T10:52:46.509Z,2.77
2018-11-10T10:55:17.815Z,11.88
2018-11-10T10:57:47.071Z,3.98
2018-11-10T11:00:23.890Z,1.85
2018-11-10T11:03:02.603Z,1.92
2018-11-10T11:05:36.187Z,2.90
2018-11-10T11:08:04.541Z,1.60
2018-11-10T11:10:32.871Z,2.35
2018-11-10T11:13:01.221Z,4.62
2018-11-10T11:15:29.671Z,2.85
2018-11-10T11:17:57.880Z,3.67
2018-11-10T11:20:26.247Z,2.90
2018-11-10T11:22:54.574Z,2.15
2018-11-10T11:25:22.955Z,2.20
2018-11-10T11:27:51.341Z,1.50
2018-11-10T11:30:21.420Z,1.67
2018-11-10T11:32:49.819Z,2.30
2018-11-10T11:35:18.261Z,3.12
2018-11-10T11:37:46.607Z,2.55
2018-11-10T11:40:19.372Z,2.45
2018-11-10T11:42:47.698Z,2.75
2018-11-10T11:45:16.779Z,2.65
2018-11-10T11:47:45.088Z,3.80
2018-11-10T11:50:17.309Z,1.73
2018-11-10T11:52:46.095Z,2.47
2018-11-10T11:55:15.614Z,3.07
2018-11-10T11:57:43.997Z,2.33
2018-11-10T12:00:17.240Z,3.67
2018-11-10T12:02:46.050Z,2.10
2018-11-10T12:05:16.473Z,2.47
2018-11-10T12:07:45.299Z,2.57
2018-11-10T12:10:16.851Z,2.43
2018-11-10T12:12:45.223Z,3.43
2018-11-10T12:15:16.359Z,3.07
2018-11-10T12:17:44.595Z,2.43
2018-11-10T12:20:18.049Z,1.80
2018-11-10T12:22:46.575Z,2.07
2018-11-10T12:25:16.085Z,1.97
2018-11-10T12:27:44.823Z,2.87
2018-11-10T12:30:16.582Z,3.40
2018-11-10T12:32:44.922Z,3.13
2018-11-10T12:35:14.031Z,3.93
2018-11-10T12:37:42.860Z,4.10
2018-11-10T12:40:16.339Z,1.80
2018-11-10T12:42:44.712Z,3.83
2018-11-10T12:45:14.925Z,3.57
2018-11-10T12:47:43.664Z,2.93
2018-11-10T12:50:16.408Z,1.83
2018-11-10T12:52:45.388Z,3.57
2018-11-10T12:55:15.696Z,2.20
2018-11-10T12:57:44.572Z,2.47
2018-11-10T13:00:18.556Z,2.37
2018-11-10T13:02:46.914Z,2.00
2018-11-10T13:05:16.115Z,2.17
2018-11-10T13:07:45.576Z,3.27
2018-11-10T13:10:18.598Z,3.60
2018-11-10T13:12:46.949Z,3.83
2018-11-10T13:15:16.140Z,4.47
2018-11-10T13:17:44.475Z,5.67
2018-11-10T13:20:16.692Z,3.73
2018-11-10T13:22:45.024Z,2.63
2018-11-10T13:25:15.158Z,3.37
2018-11-10T13:27:43.450Z,4.70
2018-11-10T13:30:16.459Z,2.93
2018-11-10T13:32:44.797Z,1.67
2018-11-10T13:35:14.428Z,2.17
2018-11-10T13:37:42.844Z,1.83
2018-11-10T13:40:14.152Z,3.43
2018-11-10T13:42:42.451Z,4.13
2018-11-10T13:45:13.666Z,4.60
2018-11-10T13:47:42.015Z,5.00
2018-11-10T13:50:13.187Z,4.00
2018-11-10T13:52:42.326Z,2.80
2018-11-10T13:55:12.184Z,5.03
2018-11-10T13:57:40.753Z,4.97
2018-11-10T14:00:13.244Z,4.03
2018-11-10T14:02:41.718Z,4.13
2018-11-10T14:05:11.738Z,6.30
2018-11-10T14:07:40.063Z,2.00
2018-11-10T14:10:12.407Z,3.50
2018-11-10T14:12:42.273Z,4.17
2018-11-10T14:15:11.957Z,5.00
2018-11-10T14:17:41.023Z,4.00
2018-11-10T14:20:14.105Z,4.33
2018-11-10T14:22:42.472Z,3.83
2018-11-10T14:25:13.882Z,3.30
2018-11-10T14:27:43.017Z,5.00
2018-11-10T14:30:17.639Z,4.43
2018-11-10T14:32:46.295Z,4.87
2018-11-10T14:35:15.837Z,3.70
2018-11-10T14:37:44.236Z,4.10
2018-11-10T14:40:17.583Z,3.67
2018-11-10T14:42:46.344Z,9.53
2018-11-10T14:45:16.742Z,4.17
2018-11-10T14:47:45.396Z,4.33
2018-11-10T14:50:19.067Z,4.20
2018-11-10T14:52:47.560Z,2.70
2018-11-10T14:55:16.623Z,3.00
2018-11-10T14:57:45.016Z,3.50
2018-11-10T15:00:24.667Z,4.33
2018-11-10T15:02:53.039Z,5.77
2018-11-10T15:05:21.400Z,4.40
2018-11-10T15:07:49.734Z,4.60
2018-11-10T15:10:20.309Z,5.37
2018-11-10T15:12:48.807Z,4.63
2018-11-10T15:15:18.164Z,5.27
2018-11-10T15:17:46.946Z,7.07
2018-11-10T15:20:18.903Z,6.07
2018-11-10T15:22:47.319Z,7.37
2018-11-10T15:25:17.695Z,5.67
2018-11-10T15:27:46.016Z,5.50
2018-11-10T15:30:19.973Z,7.33
2018-11-10T15:32:48.699Z,4.23
2018-11-10T15:35:18.490Z,4.37
2018-11-10T15:37:48.091Z,5.30
2018-11-10T15:40:19.527Z,3.67
2018-11-10T15:42:48.007Z,2.80
2018-11-10T15:45:18.282Z,4.37
2018-11-10T15:47:46.616Z,3.40
2018-11-10T15:50:18.898Z,5.53
2018-11-10T15:52:47.272Z,4.87
2018-11-10T15:55:17.162Z,4.90
2018-11-10T15:57:45.498Z,5.97
2018-11-10T16:00:18.113Z,4.37
2018-11-10T16:02:48.332Z,5.57
2018-11-10T16:05:17.051Z,6.57
2018-11-10T16:07:45.467Z,6.60
2018-11-10T16:10:16.927Z,6.63
2018-11-10T16:12:45.391Z,8.53
2018-11-10T16:15:15.919Z,8.23
2018-11-10T16:17:44.287Z,8.53
2018-11-10T16:20:17.262Z,7.33
2018-11-10T16:22:46.955Z,6.70
2018-11-10T16:25:16.459Z,6.30
2018-11-10T16:27:45.035Z,6.90
2018-11-10T16:30:18.392Z,8.73
2018-11-10T16:32:47.130Z,7.30
2018-11-10T16:35:16.864Z,11.37
2018-11-10T16:37:45.210Z,5.93
2018-11-10T16:40:18.195Z,8.40
2018-11-10T16:42:47.300Z,7.00
2018-11-10T16:45:17.303Z,5.70
2018-11-10T16:47:45.679Z,8.10
2018-11-10T16:50:18.994Z,3.87
2018-11-10T16:52:47.379Z,7.03
2018-11-10T16:55:16.897Z,6.10
2018-11-10T16:57:45.131Z,6.77
2018-11-10T17:00:17.762Z,5.50
2018-11-10T17:02:46.060Z,3.87
2018-11-10T17:05:15.339Z,4.10
2018-11-10T17:07:43.743Z,4.70
2018-11-10T17:10:18.741Z,3.77
2018-11-10T17:12:47.076Z,4.47
2018-11-10T17:15:16.630Z,4.67
2018-11-10T17:17:44.991Z,4.10
2018-11-10T17:20:17.649Z,4.37
2018-11-10T17:22:46.069Z,4.40
2018-11-10T17:25:16.116Z,3.00
2018-11-10T17:27:44.676Z,4.97
2018-11-10T17:30:18.452Z,4.77
2018-11-10T17:32:46.812Z,8.37
2018-11-10T17:35:15.999Z,9.00
2018-11-10T17:37:44.638Z,11.00
2018-11-10T17:40:17.280Z,10.03
2018-11-10T17:42:45.786Z,11.53
2018-11-10T17:45:16.293Z,9.17
2018-11-10T17:47:44.704Z,10.20
2018-11-10T17:50:17.641Z,8.07
2018-11-10T17:52:46.045Z,6.63
2018-11-10T17:55:16.251Z,7.70
2018-11-10T17:57:45.135Z,5.33
2018-11-10T18:00:18.459Z,10.23
2018-11-10T18:02:46.762Z,9.17
2018-11-10T18:05:16.238Z,10.37
2018-11-10T18:07:44.739Z,6.47
2018-11-10T18:10:18.338Z,5.77
2018-11-10T18:12:46.865Z,4.60
2018-11-10T18:15:16.358Z,6.77
2018-11-10T18:17:44.875Z,5.73
2018-11-10T18:20:18.632Z,5.23
2018-11-10T18:22:47.331Z,4.73
2018-11-10T18:25:16.607Z,6.57
2018-11-10T18:27:44.954Z,5.13
2018-11-10T18:30:18.152Z,4.87
2018-11-10T18:32:46.570Z,4.43
2018-11-10T18:35:15.887Z,5.80
2018-11-10T18:37:44.206Z,3.90
2018-11-10T18:40:15.459Z,7.50
2018-11-10T18:42:43.767Z,7.13
2018-11-10T18:45:14.112Z,6.77
2018-11-10T18:47:42.747Z,7.03
2018-11-10T18:50:17.465Z,8.07
2018-11-10T18:52:45.791Z,9.63
2018-11-10T18:55:15.545Z,6.93
2018-11-10T18:57:44.439Z,6.43
2018-11-10T19:00:18.143Z,6.93
2018-11-10T19:02:46.492Z,5.27
2018-11-10T19:05:16.464Z,10.53
2018-11-10T19:07:44.807Z,10.90
2018-11-10T19:10:17.807Z,12.30
2018-11-10T19:12:46.184Z,7.53
2018-11-10T19:15:17.373Z,8.00
2018-11-10T19:17:45.696Z,5.17
2018-11-10T19:20:18.649Z,9.63
2018-11-10T19:22:47.001Z,7.40
2018-11-10T19:25:16.143Z,9.80
2018-11-10T19:27:44.494Z,6.83
2018-11-10T19:30:19.455Z,6.93
2018-11-10T19:32:48.738Z,11.13
2018-11-10T19:35:18.137Z,7.07
2018-11-10T19:37:46.813Z,5.10
2018-11-10T19:40:18.899Z,6.30
2018-11-10T19:42:47.538Z,5.90
2018-11-10T19:45:16.960Z,6.17
2018-11-10T19:47:46.154Z,7.90
2018-11-10T19:50:17.422Z,8.97
2018-11-10T19:52:46.082Z,6.13
2018-11-10T19:55:16.993Z,7.70
2018-11-10T19:57:45.388Z,10.47
2018-11-10T20:00:19.741Z,12.53
2018-11-10T20:02:48.102Z,15.00
2018-11-10T20:05:17.111Z,14.57
2018-11-10T20:07:45.504Z,15.23
2018-11-10T20:10:17.073Z,8.93
2018-11-10T20:12:45.558Z,7.73
2018-11-10T20:15:15.682Z,9.23
2018-11-10T20:17:44.191Z,10.60
2018-11-10T20:20:17.346Z,11.17
2018-11-10T20:22:45.735Z,8.73
2018-11-10T20:25:16.547Z,6.43
2018-11-10T20:27:44.890Z,5.20
2018-11-10T20:30:19.234Z,5.97
2018-11-10T20:32:47.736Z,5.07
2018-11-10T20:35:16.866Z,6.57
2018-11-10T20:37:46.625Z,4.20
2018-11-10T20:40:18.564Z,7.03
2018-11-10T20:42:46.937Z,9.37
2018-11-10T20:45:17.445Z,11.80
2018-11-10T20:47:45.926Z,5.53
2018-11-10T20:50:19.720Z,6.77
2018-11-10T20:52:48.056Z,5.10
2018-11-10T20:55:17.364Z,10.23
2018-11-10T20:57:45.811Z,10.97
2018-11-10T21:00:20.473Z,7.53
2018-11-10T21:02:48.829Z,10.33
2018-11-10T21:05:17.734Z,5.03
2018-11-10T21:07:46.067Z,6.33
2018-11-10T21:10:19.161Z,5.40
2018-11-10T21:12:48.298Z,4.33
2018-11-10T21:15:17.657Z,3.17
2018-11-10T21:17:46.135Z,7.00
2018-11-10T21:20:16.093Z,4.67
2018-11-10T21:22:44.722Z,4.80
2018-11-10T21:25:15.959Z,4.33
2018-11-10T21:27:44.548Z,4.67
2018-11-10T21:30:19.318Z,6.87
2018-11-10T21:32:47.971Z,5.40
2018-11-10T21:35:17.040Z,4.90
2018-11-10T21:37:45.290Z,4.50
2018-11-10T21:40:18.459Z,3.60
2018-11-10T21:42:46.848Z,5.97
2018-11-10T21:45:16.971Z,4.67
2018-11-10T21:47:45.555Z,4.10
2018-11-10T21:50:20.039Z,4.73
2018-11-10T21:52:48.358Z,4.83
2018-11-10T21:55:18.446Z,4.40
2018-11-10T21:57:47.261Z,5.70
2018-11-10T22:00:20.704Z,7.60
2018-11-10T22:02:49.347Z,7.33
2018-11-10T22:05:18.190Z,7.10
2018-11-10T22:07:46.483Z,6.23
2018-11-10T22:10:20.361Z,5.40
2018-11-10T22:12:48.681Z,5.67
2018-11-10T22:15:19.298Z,5.93
2018-11-10T22:17:47.747Z,4.97
2018-11-10T22:20:21.316Z,5.43
2018-11-10T22:22:49.705Z,5.20
2018-11-10T22:25:18.235Z,5.33
2018-11-10T22:27:47.947Z,8.53
2018-11-10T22:30:21.016Z,7.00
2018-11-10T22:32:49.926Z,3.87
2018-11-10T22:35:18.358Z,4.13
2018-11-10T22:37:46.736Z,4.80
2018-11-10T22:40:19.418Z,4.03
2018-11-10T22:42:47.935Z,5.33
2018-11-10T22:45:18.467Z,3.80
2018-11-10T22:47:46.792Z,6.23
2018-11-10T22:50:19.841Z,4.10
2018-11-10T22:52:48.243Z,3.27
2018-11-10T22:55:17.088Z,4.40
2018-11-10T22:57:45.434Z,2.20
2018-11-10T23:00:23.623Z,4.40
2018-11-10T23:02:53.231Z,4.00
2018-11-10T23:05:22.050Z,3.20
2018-11-10T23:07:50.405Z,4.30
2018-11-10T23:10:20.805Z,2.73
2018-11-10T23:12:50.214Z,4.33
2018-11-10T23:15:18.568Z,2.20
2018-11-10T23:17:46.894Z,4.37
2018-11-10T23:20:20.321Z,4.47
2018-11-10T23:22:48.669Z,2.63
2018-11-10T23:25:18.089Z,3.10
2018-11-10T23:27:46.452Z,5.23
2018-11-10T23:30:21.774Z,4.30
2018-11-10T23:32:50.184Z,2.90
2018-11-10T23:35:18.516Z,2.67
2018-11-10T23:37:46.872Z,3.57
2018-11-10T23:40:18.828Z,4.07
2018-11-10T23:42:47.299Z,2.83
2018-11-10T23:45:16.512Z,3.60
2018-11-10T23:47:44.856Z,4.00
2018-11-10T23:50:17.921Z,4.77
2018-11-10T23:52:46.297Z,3.23
2018-11-10T23:55:16.032Z,3.13
2018-11-10T23:57:44.360Z,4.60
